sensor_id;sensor_type;location;lat;lon;timestamp;P1;durP1;ratioP1;P2;durP2;ratioP2
5418;SDS011;2732;52.092;11.556;2023-05-10T00:03:40;4.13;;;2.93;;
5418;SDS011;2732;52.092;11.556;2023-05-10T00:08:40;3.10;;;2.90;;
5418;SDS011;2732;52.092;11.556;2023-05-10T00:13:42;5.50;;;3.53;;
5418;SDS011;2732;52.092;11.556;2023-05-10T00:18:42;2.80;;;2.60;;
5418;SDS011;2732;52.092;11.556;2023-05-10T00:23:43;3.63;;;3.33;;
5418;SDS011;2732;52.092;11.556;2023-05-10T00:28:43;3.93;;;2.93;;
5418;SDS011;2732;52.092;11.556;2023-05-10T00:33:44;4.40;;;3.17;;
5418;SDS011;2732;52.092;11.556;2023-05-10T00:38:45;2.83;;;2.50;;
5418;SDS011;2732;52.092;11.556;2023-05-10T00:43:45;4.10;;;3.70;;
5418;SDS011;2732;52.092;11.556;2023-05-10T00:48:46;5.33;;;3.60;;
5418;SDS011;2732;52.092;11.556;2023-05-10T00:53:47;4.20;;;3.37;;
5418;SDS011;2732;52.092;11.556;2023-05-10T00:58:49;3.23;;;2.97;;
5418;SDS011;2732;52.092;11.556;2023-05-10T01:03:50;7.93;;;3.20;;
5418;SDS011;2732;52.092;11.556;2023-05-10T01:08:52;5.93;;;3.83;;
5418;SDS011;2732;52.092;11.556;2023-05-10T01:13:55;4.80;;;3.77;;
5418;SDS011;2732;52.092;11.556;2023-05-10T01:18:57;3.60;;;3.30;;
5418;SDS011;2732;52.092;11.556;2023-05-10T01:29:11;5.67;;;3.40;;
5418;SDS011;2732;52.092;11.556;2023-05-10T01:34:44;6.03;;;3.20;;
5418;SDS011;2732;52.092;11.556;2023-05-10T01:40:03;4.60;;;3.10;;
5418;SDS011;2732;52.092;11.556;2023-05-10T01:50:22;4.20;;;3.90;;
5418;SDS011;2732;52.092;11.556;2023-05-10T01:55:29;3.67;;;3.33;;
5418;SDS011;2732;52.092;11.556;2023-05-10T02:00:33;3.50;;;3.30;;
5418;SDS011;2732;52.092;11.556;2023-05-10T02:05:35;3.47;;;3.27;;
5418;SDS011;2732;52.092;11.556;2023-05-10T02:10:37;3.70;;;3.40;;
5418;SDS011;2732;52.092;11.556;2023-05-10T02:15:40;3.20;;;3.00;;
5418;SDS011;2732;52.092;11.556;2023-05-10T02:20:43;3.37;;;3.17;;
5418;SDS011;2732;52.092;11.556;2023-05-10T02:25:47;3.10;;;2.90;;
5418;SDS011;2732;52.092;11.556;2023-05-10T02:30:49;3.23;;;3.03;;
5418;SDS011;2732;52.092;11.556;2023-05-10T02:35:51;5.90;;;3.60;;
5418;SDS011;2732;52.092;11.556;2023-05-10T02:40:52;3.87;;;3.33;;
5418;SDS011;2732;52.092;11.556;2023-05-10T02:45:54;2.87;;;2.77;;
5418;SDS011;2732;52.092;11.556;2023-05-10T02:50:55;4.70;;;2.87;;
5418;SDS011;2732;52.092;11.556;2023-05-10T02:56:01;3.53;;;3.20;;
5418;SDS011;2732;52.092;11.556;2023-05-10T03:01:07;4.07;;;3.80;;
5418;SDS011;2732;52.092;11.556;2023-05-10T03:06:08;8.50;;;5.13;;
5418;SDS011;2732;52.092;11.556;2023-05-10T03:17:00;10.30;;;4.00;;
5418;SDS011;2732;52.092;11.556;2023-05-10T03:22:32;4.60;;;4.10;;
5418;SDS011;2732;52.092;11.556;2023-05-10T03:27:41;4.53;;;3.43;;
5418;SDS011;2732;52.092;11.556;2023-05-10T03:32:43;9.93;;;3.63;;
5418;SDS011;2732;52.092;11.556;2023-05-10T03:37:44;3.60;;;3.40;;
5418;SDS011;2732;52.092;11.556;2023-05-10T03:42:44;5.77;;;3.40;;
5418;SDS011;2732;52.092;11.556;2023-05-10T03:47:45;4.50;;;3.63;;
5418;SDS011;2732;52.092;11.556;2023-05-10T03:52:46;5.40;;;3.27;;
5418;SDS011;2732;52.092;11.556;2023-05-10T03:57:47;3.80;;;3.60;;
5418;SDS011;2732;52.092;11.556;2023-05-10T04:02:49;7.20;;;4.00;;
5418;SDS011;2732;52.092;11.556;2023-05-10T04:07:49;3.93;;;3.63;;
5418;SDS011;2732;52.092;11.556;2023-05-10T04:12:51;3.77;;;3.47;;
5418;SDS011;2732;52.092;11.556;2023-05-10T04:17:51;3.97;;;3.37;;
5418;SDS011;2732;52.092;11.556;2023-05-10T04:22:55;3.70;;;3.40;;
5418;SDS011;2732;52.092;11.556;2023-05-10T04:27:56;3.57;;;3.27;;
5418;SDS011;2732;52.092;11.556;2023-05-10T04:32:58;4.40;;;3.70;;
5418;SDS011;2732;52.092;11.556;2023-05-10T04:37:59;7.53;;;3.60;;
5418;SDS011;2732;52.092;11.556;2023-05-10T04:43:01;4.23;;;3.90;;
5418;SDS011;2732;52.092;11.556;2023-05-10T04:48:01;4.60;;;3.53;;
5418;SDS011;2732;52.092;11.556;2023-05-10T04:53:02;4.90;;;4.00;;
5418;SDS011;2732;52.092;11.556;2023-05-10T04:58:02;5.63;;;3.20;;
5418;SDS011;2732;52.092;11.556;2023-05-10T05:03:03;5.93;;;2.87;;
5418;SDS011;2732;52.092;11.556;2023-05-10T05:08:04;4.40;;;3.40;;
5418;SDS011;2732;52.092;11.556;2023-05-10T05:13:05;6.70;;;3.60;;
5418;SDS011;2732;52.092;11.556;2023-05-10T05:18:06;3.73;;;3.33;;
5418;SDS011;2732;52.092;11.556;2023-05-10T05:23:06;3.87;;;3.50;;
5418;SDS011;2732;52.092;11.556;2023-05-10T05:28:07;4.27;;;3.10;;
5418;SDS011;2732;52.092;11.556;2023-05-10T05:33:07;14.53;;;2.90;;
5418;SDS011;2732;52.092;11.556;2023-05-10T05:38:08;3.07;;;2.67;;
5418;SDS011;2732;52.092;11.556;2023-05-10T05:43:09;4.47;;;3.97;;
5418;SDS011;2732;52.092;11.556;2023-05-10T05:48:09;4.17;;;2.80;;
5418;SDS011;2732;52.092;11.556;2023-05-10T05:53:10;3.97;;;3.17;;
5418;SDS011;2732;52.092;11.556;2023-05-10T05:58:10;2.97;;;2.67;;
5418;SDS011;2732;52.092;11.556;2023-05-10T06:03:11;3.27;;;3.07;;
5418;SDS011;2732;52.092;11.556;2023-05-10T06:08:12;4.27;;;3.30;;
5418;SDS011;2732;52.092;11.556;2023-05-10T06:18:59;3.97;;;2.70;;
5418;SDS011;2732;52.092;11.556;2023-05-10T06:24:00;3.53;;;3.23;;
5418;SDS011;2732;52.092;11.556;2023-05-10T06:29:00;5.40;;;3.63;;
5418;SDS011;2732;52.092;11.556;2023-05-10T06:34:01;3.47;;;3.20;;
5418;SDS011;2732;52.092;11.556;2023-05-10T06:39:02;4.70;;;3.70;;
5418;SDS011;2732;52.092;11.556;2023-05-10T06:44:03;3.33;;;3.13;;
5418;SDS011;2732;52.092;11.556;2023-05-10T06:49:04;5.27;;;3.43;;
5418;SDS011;2732;52.092;11.556;2023-05-10T06:54:04;4.33;;;3.83;;
5418;SDS011;2732;52.092;11.556;2023-05-10T06:59:05;4.93;;;3.20;;
5418;SDS011;2732;52.092;11.556;2023-05-10T07:04:06;3.70;;;3.40;;
5418;SDS011;2732;52.092;11.556;2023-05-10T07:09:07;4.10;;;3.30;;
5418;SDS011;2732;52.092;11.556;2023-05-10T07:14:08;3.30;;;3.10;;
5418;SDS011;2732;52.092;11.556;2023-05-10T07:19:08;3.73;;;3.43;;
5418;SDS011;2732;52.092;11.556;2023-05-10T07:24:09;4.73;;;4.20;;
5418;SDS011;2732;52.092;11.556;2023-05-10T07:29:10;7.67;;;4.10;;
5418;SDS011;2732;52.092;11.556;2023-05-10T07:34:10;3.67;;;3.37;;
5418;SDS011;2732;52.092;11.556;2023-05-10T07:44:59;4.07;;;3.47;;
5418;SDS011;2732;52.092;11.556;2023-05-10T07:56:20;5.80;;;5.20;;
5418;SDS011;2732;52.092;11.556;2023-05-10T08:01:32;5.27;;;3.97;;
5418;SDS011;2732;52.092;11.556;2023-05-10T08:06:34;4.33;;;3.93;;
5418;SDS011;2732;52.092;11.556;2023-05-10T08:11:35;11.53;;;4.50;;
5418;SDS011;2732;52.092;11.556;2023-05-10T08:33:58;4.13;;;3.73;;
5418;SDS011;2732;52.092;11.556;2023-05-10T08:39:00;5.50;;;4.00;;
5418;SDS011;2732;52.092;11.556;2023-05-10T08:44:00;5.77;;;4.20;;
5418;SDS011;2732;52.092;11.556;2023-05-10T08:49:06;5.10;;;4.00;;
5418;SDS011;2732;52.092;11.556;2023-05-10T08:54:08;5.13;;;4.70;;
5418;SDS011;2732;52.092;11.556;2023-05-10T08:59:09;6.23;;;4.63;;
5418;SDS011;2732;52.092;11.556;2023-05-10T09:04:09;4.77;;;4.37;;
5418;SDS011;2732;52.092;11.556;2023-05-10T09:09:11;11.17;;;4.53;;
5418;SDS011;2732;52.092;11.556;2023-05-10T09:14:12;6.13;;;5.63;;
5418;SDS011;2732;52.092;11.556;2023-05-10T09:19:13;5.87;;;4.13;;
5418;SDS011;2732;52.092;11.556;2023-05-10T09:24:14;8.77;;;3.90;;
5418;SDS011;2732;52.092;11.556;2023-05-10T09:29:15;5.20;;;4.70;;
5418;SDS011;2732;52.092;11.556;2023-05-10T09:34:19;7.60;;;4.70;;
5418;SDS011;2732;52.092;11.556;2023-05-10T09:39:35;5.40;;;4.60;;
5418;SDS011;2732;52.092;11.556;2023-05-10T09:44:37;5.83;;;4.30;;
5418;SDS011;2732;52.092;11.556;2023-05-10T09:49:39;11.70;;;5.37;;
5418;SDS011;2732;52.092;11.556;2023-05-10T09:54:45;4.73;;;4.33;;
5418;SDS011;2732;52.092;11.556;2023-05-10T09:59:53;6.80;;;5.30;;
5418;SDS011;2732;52.092;11.556;2023-05-10T10:04:54;5.67;;;5.17;;
5418;SDS011;2732;52.092;11.556;2023-05-10T10:09:55;5.50;;;5.00;;
5418;SDS011;2732;52.092;11.556;2023-05-10T10:14:56;7.80;;;5.50;;
5418;SDS011;2732;52.092;11.556;2023-05-10T10:20:02;5.93;;;5.13;;
5418;SDS011;2732;52.092;11.556;2023-05-10T10:25:07;10.30;;;5.37;;
5418;SDS011;2732;52.092;11.556;2023-05-10T10:35:19;6.93;;;6.33;;
5418;SDS011;2732;52.092;11.556;2023-05-10T10:40:24;7.00;;;6.00;;
5418;SDS011;2732;52.092;11.556;2023-05-10T10:45:30;8.20;;;6.67;;
5418;SDS011;2732;52.092;11.556;2023-05-10T10:50:30;7.67;;;6.90;;
5418;SDS011;2732;52.092;11.556;2023-05-10T10:55:46;36.30;;;22.10;;
5418;SDS011;2732;52.092;11.556;2023-05-10T11:00:48;9.67;;;7.20;;
5418;SDS011;2732;52.092;11.556;2023-05-10T11:05:49;8.17;;;6.20;;
5418;SDS011;2732;52.092;11.556;2023-05-10T11:10:53;8.70;;;7.30;;
5418;SDS011;2732;52.092;11.556;2023-05-10T11:16:22;6.50;;;6.00;;
5418;SDS011;2732;52.092;11.556;2023-05-10T11:21:24;8.40;;;6.47;;
5418;SDS011;2732;52.092;11.556;2023-05-10T11:26:32;7.90;;;7.20;;
5418;SDS011;2732;52.092;11.556;2023-05-10T11:31:35;8.87;;;6.27;;
5418;SDS011;2732;52.092;11.556;2023-05-10T11:36:46;8.67;;;7.40;;
5418;SDS011;2732;52.092;11.556;2023-05-10T11:41:51;7.27;;;6.57;;
5418;SDS011;2732;52.092;11.556;2023-05-10T11:46:52;8.37;;;7.57;;
5418;SDS011;2732;52.092;11.556;2023-05-10T11:51:53;8.17;;;6.47;;
5418;SDS011;2732;52.092;11.556;2023-05-10T11:57:03;12.30;;;6.90;;
5418;SDS011;2732;52.092;11.556;2023-05-10T12:02:04;11.97;;;7.93;;
5418;SDS011;2732;52.092;11.556;2023-05-10T12:07:05;9.17;;;7.67;;
5418;SDS011;2732;52.092;11.556;2023-05-10T12:12:06;8.63;;;7.03;;
5418;SDS011;2732;52.092;11.556;2023-05-10T12:17:11;8.20;;;7.50;;
5418;SDS011;2732;52.092;11.556;2023-05-10T12:22:13;8.10;;;6.93;;
5418;SDS011;2732;52.092;11.556;2023-05-10T12:27:13;9.20;;;6.03;;
5418;SDS011;2732;52.092;11.556;2023-05-10T12:32:14;5.63;;;5.13;;
5418;SDS011;2732;52.092;11.556;2023-05-10T12:37:15;4.93;;;4.47;;
5418;SDS011;2732;52.092;11.556;2023-05-10T12:42:16;1.70;;;1.60;;
5418;SDS011;2732;52.092;11.556;2023-05-10T12:47:16;0.93;;;0.93;;
5418;SDS011;2732;52.092;11.556;2023-05-10T12:52:17;0.70;;;0.70;;
5418;SDS011;2732;52.092;11.556;2023-05-10T12:57:18;1.63;;;1.10;;
5418;SDS011;2732;52.092;11.556;2023-05-10T13:02:20;0.93;;;0.93;;
5418;SDS011;2732;52.092;11.556;2023-05-10T13:07:22;1.30;;;1.20;;
5418;SDS011;2732;52.092;11.556;2023-05-10T13:12:23;1.30;;;1.30;;
5418;SDS011;2732;52.092;11.556;2023-05-10T13:17:25;1.03;;;1.03;;
5418;SDS011;2732;52.092;11.556;2023-05-10T13:22:26;0.93;;;0.93;;
5418;SDS011;2732;52.092;11.556;2023-05-10T13:27:26;1.37;;;1.37;;
5418;SDS011;2732;52.092;11.556;2023-05-10T13:32:27;2.07;;;1.80;;
5418;SDS011;2732;52.092;11.556;2023-05-10T13:37:28;2.13;;;2.03;;
5418;SDS011;2732;52.092;11.556;2023-05-10T13:42:30;3.10;;;2.73;;
5418;SDS011;2732;52.092;11.556;2023-05-10T13:47:33;2.50;;;2.40;;
5418;SDS011;2732;52.092;11.556;2023-05-10T13:52:33;2.10;;;2.00;;
5418;SDS011;2732;52.092;11.556;2023-05-10T13:57:35;2.30;;;2.20;;
5418;SDS011;2732;52.092;11.556;2023-05-10T14:02:35;3.10;;;2.90;;
5418;SDS011;2732;52.092;11.556;2023-05-10T14:07:37;3.20;;;3.10;;
5418;SDS011;2732;52.092;11.556;2023-05-10T14:12:37;5.27;;;4.77;;
5418;SDS011;2732;52.092;11.556;2023-05-10T14:17:38;5.00;;;4.70;;
5418;SDS011;2732;52.092;11.556;2023-05-10T14:22:41;6.70;;;6.10;;
5418;SDS011;2732;52.092;11.556;2023-05-10T14:27:42;6.17;;;5.60;;
5418;SDS011;2732;52.092;11.556;2023-05-10T14:32:42;5.37;;;5.07;;
5418;SDS011;2732;52.092;11.556;2023-05-10T14:37:43;5.30;;;5.00;;
5418;SDS011;2732;52.092;11.556;2023-05-10T14:42:44;4.57;;;3.67;;
5418;SDS011;2732;52.092;11.556;2023-05-10T14:47:44;4.60;;;4.40;;
5418;SDS011;2732;52.092;11.556;2023-05-10T14:52:45;4.23;;;4.03;;
5418;SDS011;2732;52.092;11.556;2023-05-10T14:57:46;3.13;;;3.03;;
5418;SDS011;2732;52.092;11.556;2023-05-10T15:02:47;3.67;;;3.50;;
5418;SDS011;2732;52.092;11.556;2023-05-10T15:07:54;5.30;;;4.90;;
5418;SDS011;2732;52.092;11.556;2023-05-10T15:12:55;3.93;;;3.83;;
5418;SDS011;2732;52.092;11.556;2023-05-10T15:17:56;3.73;;;3.63;;
5418;SDS011;2732;52.092;11.556;2023-05-10T15:22:57;4.47;;;4.13;;
5418;SDS011;2732;52.092;11.556;2023-05-10T15:27:57;3.77;;;3.57;;
5418;SDS011;2732;52.092;11.556;2023-05-10T15:32:58;4.40;;;4.20;;
5418;SDS011;2732;52.092;11.556;2023-05-10T15:37:59;3.87;;;3.67;;
5418;SDS011;2732;52.092;11.556;2023-05-10T15:43:02;3.83;;;3.63;;
5418;SDS011;2732;52.092;11.556;2023-05-10T15:48:02;4.10;;;3.80;;
5418;SDS011;2732;52.092;11.556;2023-05-10T15:53:03;3.40;;;3.30;;
5418;SDS011;2732;52.092;11.556;2023-05-10T15:58:04;3.50;;;3.20;;
5418;SDS011;2732;52.092;11.556;2023-05-10T16:03:05;3.70;;;3.60;;
5418;SDS011;2732;52.092;11.556;2023-05-10T16:08:06;3.57;;;3.47;;
5418;SDS011;2732;52.092;11.556;2023-05-10T16:13:06;3.87;;;3.63;;
5418;SDS011;2732;52.092;11.556;2023-05-10T16:18:07;3.30;;;3.10;;
5418;SDS011;2732;52.092;11.556;2023-05-10T16:23:09;2.83;;;2.73;;
5418;SDS011;2732;52.092;11.556;2023-05-10T16:28:10;3.03;;;2.93;;
5418;SDS011;2732;52.092;11.556;2023-05-10T16:33:10;2.60;;;2.50;;
5418;SDS011;2732;52.092;11.556;2023-05-10T16:38:11;3.00;;;2.90;;
5418;SDS011;2732;52.092;11.556;2023-05-10T16:43:12;2.13;;;2.03;;
5418;SDS011;2732;52.092;11.556;2023-05-10T16:48:12;2.30;;;2.20;;
5418;SDS011;2732;52.092;11.556;2023-05-10T16:53:13;5.00;;;2.27;;
5418;SDS011;2732;52.092;11.556;2023-05-10T16:58:13;2.63;;;2.50;;
5418;SDS011;2732;52.092;11.556;2023-05-10T17:03:14;2.50;;;2.40;;
5418;SDS011;2732;52.092;11.556;2023-05-10T17:08:15;2.47;;;2.37;;
5418;SDS011;2732;52.092;11.556;2023-05-10T17:13:15;1.93;;;1.83;;
5418;SDS011;2732;52.092;11.556;2023-05-10T17:18:16;1.90;;;1.80;;
5418;SDS011;2732;52.092;11.556;2023-05-10T17:23:18;2.20;;;2.10;;
5418;SDS011;2732;52.092;11.556;2023-05-10T17:28:19;2.20;;;2.10;;
5418;SDS011;2732;52.092;11.556;2023-05-10T17:33:20;1.83;;;1.83;;
5418;SDS011;2732;52.092;11.556;2023-05-10T17:38:21;1.27;;;1.17;;
5418;SDS011;2732;52.092;11.556;2023-05-10T17:43:22;1.13;;;1.13;;
5418;SDS011;2732;52.092;11.556;2023-05-10T17:48:24;1.60;;;1.50;;
5418;SDS011;2732;52.092;11.556;2023-05-10T17:53:25;0.90;;;0.90;;
5418;SDS011;2732;52.092;11.556;2023-05-10T17:58:26;1.00;;;0.90;;
5418;SDS011;2732;52.092;11.556;2023-05-10T18:03:27;0.63;;;0.60;;
5418;SDS011;2732;52.092;11.556;2023-05-10T18:08:28;0.60;;;0.60;;
5418;SDS011;2732;52.092;11.556;2023-05-10T18:13:29;0.80;;;0.80;;
5418;SDS011;2732;52.092;11.556;2023-05-10T18:18:30;1.00;;;0.80;;
5418;SDS011;2732;52.092;11.556;2023-05-10T18:23:30;0.80;;;0.77;;
5418;SDS011;2732;52.092;11.556;2023-05-10T18:28:31;0.80;;;0.80;;
5418;SDS011;2732;52.092;11.556;2023-05-10T18:33:32;0.80;;;0.80;;
5418;SDS011;2732;52.092;11.556;2023-05-10T18:38:32;1.00;;;0.80;;
5418;SDS011;2732;52.092;11.556;2023-05-10T18:43:33;1.43;;;1.10;;
5418;SDS011;2732;52.092;11.556;2023-05-10T18:48:34;2.83;;;1.33;;
5418;SDS011;2732;52.092;11.556;2023-05-10T18:53:34;1.43;;;1.43;;
5418;SDS011;2732;52.092;11.556;2023-05-10T18:58:36;1.70;;;1.60;;
5418;SDS011;2732;52.092;11.556;2023-05-10T19:03:37;2.47;;;1.70;;
5418;SDS011;2732;52.092;11.556;2023-05-10T19:08:37;2.40;;;2.30;;
5418;SDS011;2732;52.092;11.556;2023-05-10T19:13:38;2.30;;;2.00;;
5418;SDS011;2732;52.092;11.556;2023-05-10T19:18:44;3.33;;;2.87;;
5418;SDS011;2732;52.092;11.556;2023-05-10T19:23:45;2.77;;;2.50;;
5418;SDS011;2732;52.092;11.556;2023-05-10T19:28:46;2.67;;;2.50;;
5418;SDS011;2732;52.092;11.556;2023-05-10T19:33:51;2.80;;;2.60;;
5418;SDS011;2732;52.092;11.556;2023-05-10T19:38:52;2.90;;;2.20;;
5418;SDS011;2732;52.092;11.556;2023-05-10T19:43:53;2.50;;;2.40;;
5418;SDS011;2732;52.092;11.556;2023-05-10T19:48:53;2.20;;;2.10;;
5418;SDS011;2732;52.092;11.556;2023-05-10T19:53:54;2.13;;;2.03;;
5418;SDS011;2732;52.092;11.556;2023-05-10T19:58:55;2.77;;;2.57;;
5418;SDS011;2732;52.092;11.556;2023-05-10T20:03:55;2.90;;;2.70;;
5418;SDS011;2732;52.092;11.556;2023-05-10T20:08:59;2.53;;;2.30;;
5418;SDS011;2732;52.092;11.556;2023-05-10T20:14:03;2.40;;;2.20;;
5418;SDS011;2732;52.092;11.556;2023-05-10T20:19:04;2.37;;;2.27;;
5418;SDS011;2732;52.092;11.556;2023-05-10T20:24:05;3.00;;;2.83;;
5418;SDS011;2732;52.092;11.556;2023-05-10T20:29:07;4.33;;;2.93;;
5418;SDS011;2732;52.092;11.556;2023-05-10T20:34:08;2.47;;;2.37;;
5418;SDS011;2732;52.092;11.556;2023-05-10T20:39:09;2.60;;;2.50;;
5418;SDS011;2732;52.092;11.556;2023-05-10T20:44:13;2.20;;;2.10;;
5418;SDS011;2732;52.092;11.556;2023-05-10T20:49:13;2.17;;;2.07;;
5418;SDS011;2732;52.092;11.556;2023-05-10T20:54:14;1.97;;;1.87;;
5418;SDS011;2732;52.092;11.556;2023-05-10T20:59:14;2.47;;;2.27;;
5418;SDS011;2732;52.092;11.556;2023-05-10T21:04:16;2.73;;;2.53;;
5418;SDS011;2732;52.092;11.556;2023-05-10T21:09:17;2.00;;;1.90;;
5418;SDS011;2732;52.092;11.556;2023-05-10T21:14:18;2.30;;;2.20;;
5418;SDS011;2732;52.092;11.556;2023-05-10T21:19:20;2.23;;;2.13;;
5418;SDS011;2732;52.092;11.556;2023-05-10T21:24:22;2.90;;;2.70;;
5418;SDS011;2732;52.092;11.556;2023-05-10T21:29:23;2.73;;;2.63;;
5418;SDS011;2732;52.092;11.556;2023-05-10T21:34:24;4.37;;;2.83;;
5418;SDS011;2732;52.092;11.556;2023-05-10T21:39:25;3.60;;;3.30;;
5418;SDS011;2732;52.092;11.556;2023-05-10T21:44:26;3.00;;;2.80;;
5418;SDS011;2732;52.092;11.556;2023-05-10T21:49:26;3.63;;;3.43;;
5418;SDS011;2732;52.092;11.556;2023-05-10T21:54:27;3.87;;;3.67;;
5418;SDS011;2732;52.092;11.556;2023-05-10T21:59:27;4.30;;;4.10;;
5418;SDS011;2732;52.092;11.556;2023-05-10T22:04:28;3.70;;;3.50;;
5418;SDS011;2732;52.092;11.556;2023-05-10T22:09:29;3.23;;;2.93;;
5418;SDS011;2732;52.092;11.556;2023-05-10T22:14:29;4.03;;;3.73;;
5418;SDS011;2732;52.092;11.556;2023-05-10T22:19:30;3.23;;;3.00;;
5418;SDS011;2732;52.092;11.556;2023-05-10T22:24:30;5.93;;;4.47;;
5418;SDS011;2732;52.092;11.556;2023-05-10T22:29:31;4.70;;;3.70;;
5418;SDS011;2732;52.092;11.556;2023-05-10T22:34:32;4.57;;;4.27;;
5418;SDS011;2732;52.092;11.556;2023-05-10T22:39:33;6.30;;;4.17;;
5418;SDS011;2732;52.092;11.556;2023-05-10T22:44:33;3.97;;;3.67;;
5418;SDS011;2732;52.092;11.556;2023-05-10T22:49:34;4.00;;;3.77;;
5418;SDS011;2732;52.092;11.556;2023-05-10T22:54:35;4.40;;;3.87;;
5418;SDS011;2732;52.092;11.556;2023-05-10T22:59:35;3.80;;;3.50;;
5418;SDS011;2732;52.092;11.556;2023-05-10T23:04:36;4.00;;;3.70;;
5418;SDS011;2732;52.092;11.556;2023-05-10T23:09:36;4.17;;;3.87;;
5418;SDS011;2732;52.092;11.556;2023-05-10T23:14:37;5.33;;;4.93;;
5418;SDS011;2732;52.092;11.556;2023-05-10T23:19:39;4.33;;;4.03;;
5418;SDS011;2732;52.092;11.556;2023-05-10T23:24:39;5.43;;;5.03;;
5418;SDS011;2732;52.092;11.556;2023-05-10T23:29:40;7.00;;;6.30;;
5418;SDS011;2732;52.092;11.556;2023-05-10T23:34:43;7.57;;;6.67;;
5418;SDS011;2732;52.092;11.556;2023-05-10T23:39:45;7.43;;;6.80;;
5418;SDS011;2732;52.092;11.556;2023-05-10T23:44:45;8.07;;;6.83;;
5418;SDS011;2732;52.092;11.556;2023-05-10T23:49:46;7.80;;;7.10;;
5418;SDS011;2732;52.092;11.556;2023-05-10T23:54:48;8.70;;;7.80;;
5418;SDS011;2732;52.092;11.556;2023-05-10T23:59:50;11.27;;;9.13;;
